createdAt,value
2023-03-07T00:02:37.731Z,4.6
2023-03-07T00:06:02.805Z,4.46
2023-03-07T00:09:27.958Z,4.37
2023-03-07T00:12:53.166Z,4.34
2023-03-07T00:16:18.390Z,4.38
2023-03-07T00:19:43.474Z,4.36
2023-03-07T00:23:08.664Z,4.32
2023-03-07T00:26:33.846Z,4.34
2023-03-07T00:29:59.029Z,4.33
2023-03-07T00:33:24.164Z,4.32
2023-03-07T00:36:49.340Z,4.24
2023-03-07T00:40:14.507Z,4.23
2023-03-07T00:43:39.682Z,4.21
2023-03-07T00:47:04.878Z,4.19
2023-03-07T00:50:30.023Z,4.18
2023-03-07T00:53:55.165Z,4.18
2023-03-07T00:57:20.330Z,4.2
2023-03-07T01:00:45.495Z,4.19
2023-03-07T01:04:10.728Z,4.14
2023-03-07T01:07:35.776Z,4.15
2023-03-07T01:11:00.951Z,4.12
2023-03-07T01:14:26.106Z,4.09
2023-03-07T01:17:51.304Z,4.04
2023-03-07T01:21:16.494Z,3.93
2023-03-07T01:24:41.641Z,3.82
2023-03-07T01:28:06.820Z,3.76
2023-03-07T01:31:32.019Z,3.7
2023-03-07T01:34:57.138Z,3.63
2023-03-07T01:38:22.320Z,3.64
2023-03-07T01:41:47.467Z,3.63
2023-03-07T01:45:12.615Z,3.6
2023-03-07T01:48:37.783Z,3.64
2023-03-07T01:52:02.967Z,3.63
2023-03-07T01:55:28.129Z,3.7
2023-03-07T01:58:53.281Z,3.7
2023-03-07T02:02:18.459Z,3.65
2023-03-07T02:05:43.614Z,3.63
2023-03-07T02:09:08.810Z,3.6
2023-03-07T02:12:34.014Z,3.52
2023-03-07T02:15:59.215Z,3.48
2023-03-07T02:19:24.360Z,3.5
2023-03-07T02:22:49.552Z,3.5
2023-03-07T02:26:14.733Z,3.5
2023-03-07T02:29:39.956Z,3.47
2023-03-07T02:33:05.122Z,3.46
2023-03-07T02:36:30.332Z,3.45
2023-03-07T02:39:55.520Z,3.41
2023-03-07T02:43:20.701Z,3.37
2023-03-07T02:46:45.929Z,3.29
2023-03-07T02:50:11.091Z,3.23
2023-03-07T02:53:36.292Z,3.22
2023-03-07T02:57:02.466Z,3.21
2023-03-07T03:00:27.675Z,3.2
2023-03-07T03:03:52.904Z,3.21
2023-03-07T03:07:18.087Z,3.23
2023-03-07T03:10:43.256Z,3.23
2023-03-07T03:14:08.461Z,3.26
2023-03-07T03:17:33.636Z,3.23
2023-03-07T03:20:58.846Z,3.23
2023-03-07T03:24:24.011Z,3.24
2023-03-07T03:27:49.197Z,3.23
2023-03-07T03:31:14.453Z,3.19
2023-03-07T03:34:39.632Z,3.17
2023-03-07T03:38:04.894Z,3.16
2023-03-07T03:41:30.047Z,3.18
2023-03-07T03:44:55.230Z,3.18
2023-03-07T03:48:20.421Z,3.19
2023-03-07T03:51:45.594Z,3.24
2023-03-07T03:55:10.836Z,3.28
2023-03-07T03:58:36.003Z,3.32
2023-03-07T04:02:01.308Z,3.3
2023-03-07T04:05:26.410Z,3.32
2023-03-07T04:08:51.615Z,3.34
2023-03-07T04:12:16.808Z,3.33
2023-03-07T04:15:42.008Z,3.37
2023-03-07T04:19:07.215Z,3.39
2023-03-07T04:22:32.396Z,3.45
2023-03-07T04:25:57.670Z,3.44
2023-03-07T04:29:22.865Z,3.41
2023-03-07T04:32:48.035Z,3.39
2023-03-07T04:36:13.224Z,3.44
2023-03-07T04:39:38.497Z,3.41
2023-03-07T04:43:03.684Z,3.38
2023-03-07T04:46:28.891Z,3.35
2023-03-07T04:49:54.072Z,3.32
2023-03-07T04:53:19.286Z,3.33
2023-03-07T04:56:44.452Z,3.33
2023-03-07T05:00:09.674Z,3.37
2023-03-07T05:03:34.927Z,3.35
2023-03-07T05:07:00.101Z,3.36
2023-03-07T05:10:25.328Z,3.37
2023-03-07T05:13:50.527Z,3.37
2023-03-07T05:17:15.728Z,3.37
2023-03-07T05:20:40.968Z,3.41
2023-03-07T05:24:06.149Z,3.43
2023-03-07T05:27:31.330Z,3.43
2023-03-07T05:30:56.579Z,3.42
2023-03-07T05:34:21.831Z,3.43
2023-03-07T05:37:47.068Z,3.45
2023-03-07T05:41:12.255Z,3.44
2023-03-07T05:44:37.471Z,3.46
2023-03-07T05:48:02.724Z,3.43
2023-03-07T05:51:27.883Z,3.42
2023-03-07T05:54:53.134Z,3.45
2023-03-07T05:58:18.346Z,3.46
2023-03-07T06:01:43.543Z,3.54
2023-03-07T06:05:08.755Z,3.58
2023-03-07T06:08:33.961Z,3.6
2023-03-07T06:11:59.182Z,3.64
2023-03-07T06:15:24.917Z,3.69
2023-03-07T06:18:49.572Z,3.78
2023-03-07T06:22:14.757Z,3.82
2023-03-07T06:25:39.943Z,3.82
2023-03-07T06:29:05.157Z,3.82
2023-03-07T06:32:30.429Z,3.83
2023-03-07T06:35:55.635Z,3.84
2023-03-07T06:39:20.766Z,3.83
2023-03-07T06:42:45.948Z,3.87
2023-03-07T06:46:11.238Z,3.97
2023-03-07T06:49:36.329Z,4.03
2023-03-07T06:53:01.499Z,4.07
2023-03-07T06:56:26.720Z,3.99
2023-03-07T06:59:51.873Z,3.98
2023-03-07T07:03:17.206Z,4
2023-03-07T07:06:42.262Z,3.99
2023-03-07T07:10:07.449Z,3.98
2023-03-07T07:13:32.626Z,4.05
2023-03-07T07:16:57.839Z,4.13
2023-03-07T07:20:23.060Z,4.13
2023-03-07T07:23:48.232Z,4.13
2023-03-07T07:27:13.471Z,4.13
2023-03-07T07:30:38.663Z,4.13
2023-03-07T07:34:03.894Z,4.14
2023-03-07T07:37:29.106Z,4.18
2023-03-07T07:40:54.304Z,4.25
2023-03-07T07:44:19.518Z,4.24
2023-03-07T07:47:44.737Z,4.18
2023-03-07T07:51:09.979Z,4.12
2023-03-07T07:54:35.237Z,4.15
2023-03-07T07:58:00.373Z,4.18
2023-03-07T08:01:25.599Z,4.25
2023-03-07T08:04:51.006Z,4.31
2023-03-07T08:08:16.285Z,4.32
2023-03-07T08:11:41.752Z,4.3
2023-03-07T08:15:06.942Z,4.34
2023-03-07T08:18:32.179Z,4.41
2023-03-07T08:21:57.418Z,4.45
2023-03-07T08:25:22.659Z,4.48
2023-03-07T08:28:47.947Z,4.54
2023-03-07T08:32:13.150Z,4.64
2023-03-07T08:35:38.450Z,4.63
2023-03-07T08:39:03.602Z,4.68
2023-03-07T08:42:28.892Z,4.7
2023-03-07T08:45:54.150Z,4.71
2023-03-07T08:49:19.268Z,4.77
2023-03-07T08:52:44.494Z,4.84
2023-03-07T08:56:09.715Z,4.9
2023-03-07T08:59:34.939Z,4.96
2023-03-07T09:03:00.181Z,5.02
2023-03-07T09:06:25.376Z,4.92
2023-03-07T09:09:50.576Z,4.89
2023-03-07T09:13:17.995Z,4.88
2023-03-07T09:16:41.072Z,5
2023-03-07T09:20:06.238Z,5.12
2023-03-07T09:23:31.415Z,5.17
2023-03-07T09:26:56.634Z,5.15
2023-03-07T09:30:21.849Z,5.18
2023-03-07T09:33:47.306Z,5.33
2023-03-07T09:37:12.281Z,5.52
2023-03-07T09:40:37.480Z,5.55
2023-03-07T09:44:02.678Z,5.55
2023-03-07T09:47:27.864Z,5.56
2023-03-07T09:50:53.101Z,5.68
2023-03-07T09:54:18.324Z,5.66
2023-03-07T09:57:43.512Z,5.67
2023-03-07T10:01:08.710Z,5.68
2023-03-07T10:04:33.993Z,5.67
2023-03-07T10:07:59.120Z,5.7
2023-03-07T10:11:24.405Z,5.7
2023-03-07T10:14:49.580Z,5.7
2023-03-07T10:18:14.795Z,5.72
2023-03-07T10:21:40.058Z,5.68
2023-03-07T10:25:05.234Z,5.66
2023-03-07T10:28:30.471Z,5.7
2023-03-07T10:31:55.653Z,5.8
2023-03-07T10:35:20.922Z,5.88
2023-03-07T10:38:46.093Z,5.95
2023-03-07T10:42:11.297Z,5.98
2023-03-07T10:45:36.563Z,6.1
2023-03-07T10:49:01.704Z,6.25
2023-03-07T10:52:26.906Z,6.39
2023-03-07T10:55:52.198Z,6.55
2023-03-07T10:59:17.378Z,6.67
2023-03-07T11:02:42.611Z,6.78
2023-03-07T11:06:07.775Z,6.83
2023-03-07T11:09:33.010Z,6.85
2023-03-07T11:12:58.245Z,6.9
2023-03-07T11:16:23.487Z,6.88
2023-03-07T11:19:48.684Z,6.82
2023-03-07T11:23:13.868Z,6.81
2023-03-07T11:26:39.095Z,6.79
2023-03-07T11:30:04.301Z,6.8
2023-03-07T11:33:29.527Z,6.73
2023-03-07T11:36:54.780Z,6.79
2023-03-07T11:40:19.933Z,6.85
2023-03-07T11:43:45.287Z,6.88
2023-03-07T11:47:10.481Z,6.92
2023-03-07T11:50:35.715Z,6.91
2023-03-07T11:54:01.081Z,6.8
2023-03-07T11:57:26.219Z,6.79
2023-03-07T12:00:51.492Z,6.76
2023-03-07T12:04:16.745Z,6.68
2023-03-07T12:07:41.978Z,6.64
2023-03-07T12:11:07.316Z,6.63
2023-03-07T12:14:32.475Z,6.62
2023-03-07T12:17:57.658Z,6.57
2023-03-07T12:21:22.907Z,6.56
2023-03-07T12:24:48.120Z,6.56
2023-03-07T12:28:13.353Z,6.56
2023-03-07T12:31:39.058Z,6.59
2023-03-07T12:35:03.940Z,6.54
2023-03-07T12:38:29.188Z,6.54
2023-03-07T12:41:54.408Z,6.56
2023-03-07T12:45:19.619Z,6.64
2023-03-07T12:48:44.796Z,6.64
2023-03-07T12:52:09.971Z,6.58
2023-03-07T12:55:35.189Z,6.54
2023-03-07T12:59:00.388Z,6.56
2023-03-07T13:02:25.622Z,6.57
2023-03-07T13:05:50.782Z,6.54
2023-03-07T13:09:15.986Z,6.53
2023-03-07T13:12:41.190Z,6.53
2023-03-07T13:16:06.408Z,6.55
2023-03-07T13:19:31.621Z,6.6
2023-03-07T13:22:56.858Z,6.63
2023-03-07T13:26:22.023Z,6.62
2023-03-07T13:29:47.227Z,6.7
2023-03-07T13:33:12.483Z,6.74
2023-03-07T13:36:37.721Z,6.78
2023-03-07T13:40:02.910Z,6.79
2023-03-07T13:43:28.538Z,6.8
2023-03-07T13:46:53.321Z,6.79
2023-03-07T13:50:18.535Z,6.79
2023-03-07T13:53:43.810Z,6.84
2023-03-07T13:57:09.103Z,6.89
2023-03-07T14:00:34.465Z,6.94
2023-03-07T14:03:59.761Z,7.04
2023-03-07T14:07:25.063Z,7.13
2023-03-07T14:10:50.395Z,7.19
2023-03-07T14:14:15.870Z,7.24
2023-03-07T14:17:40.714Z,7.3
2023-03-07T14:21:05.934Z,7.34
2023-03-07T14:24:31.129Z,7.37
2023-03-07T14:27:56.365Z,7.3
2023-03-07T15:03:55.355Z,4.78
2023-03-07T15:07:20.553Z,5.67
2023-03-07T15:10:45.813Z,5.89
2023-03-07T15:14:11.047Z,6.03
2023-03-07T15:17:36.867Z,6.12
2023-03-07T15:21:02.147Z,6.21
2023-03-07T15:24:27.363Z,6.23
2023-03-07T15:27:52.608Z,6.25
2023-03-07T15:31:17.878Z,6.26
2023-03-07T15:34:43.173Z,6.28
2023-03-07T15:38:08.419Z,6.35
2023-03-07T15:41:33.695Z,6.38
2023-03-07T15:44:58.872Z,6.35
2023-03-07T15:48:24.119Z,6.37
2023-03-07T15:51:49.361Z,6.38
2023-03-07T15:55:14.656Z,6.38
2023-03-07T15:58:39.879Z,6.34
2023-03-07T16:02:05.190Z,6.34
2023-03-07T16:05:30.353Z,6.31
2023-03-07T16:08:55.626Z,6.31
2023-03-07T16:12:23.407Z,6.34
2023-03-07T16:15:48.592Z,6.38
2023-03-07T16:19:13.796Z,6.44
2023-03-07T16:22:39.007Z,6.49
2023-03-07T16:26:04.240Z,6.51
2023-03-07T16:29:29.459Z,6.41
2023-03-07T16:32:54.634Z,6.38
2023-03-07T16:36:19.894Z,6.33
2023-03-07T16:39:45.154Z,6.24
2023-03-07T16:43:10.436Z,6.21
2023-03-07T16:46:35.680Z,6.14
2023-03-07T16:50:00.973Z,6.08
2023-03-07T16:53:26.093Z,6.02
2023-03-07T16:56:51.315Z,5.93
2023-03-07T17:00:16.596Z,5.83
2023-03-07T17:03:41.813Z,5.8
2023-03-07T17:07:07.014Z,5.73
2023-03-07T17:10:32.204Z,5.66
2023-03-07T17:13:57.400Z,5.56
2023-03-07T17:17:22.613Z,5.44
2023-03-07T17:20:47.892Z,5.38
2023-03-07T17:24:13.041Z,5.37
2023-03-07T17:27:38.243Z,5.36
2023-03-07T17:31:03.528Z,5.34
2023-03-07T17:34:28.682Z,5.28
2023-03-07T17:37:53.920Z,5.29
2023-03-07T17:41:19.071Z,5.31
2023-03-07T17:44:44.288Z,5.34
2023-03-07T17:48:09.516Z,5.41
2023-03-07T17:51:34.764Z,5.47
2023-03-07T17:54:59.977Z,5.52
2023-03-07T17:58:25.127Z,5.54
2023-03-07T18:01:50.422Z,5.51
2023-03-07T18:05:15.552Z,5.52
2023-03-07T18:08:40.847Z,5.53
2023-03-07T18:12:06.173Z,5.5
2023-03-07T18:15:31.483Z,5.55
2023-03-07T18:18:59.599Z,5.54
2023-03-07T18:22:22.150Z,5.53
2023-03-07T18:25:47.436Z,5.52
2023-03-07T18:29:12.923Z,5.54
2023-03-07T18:32:38.405Z,5.56
2023-03-07T18:36:03.570Z,5.57
2023-03-07T18:39:28.875Z,5.56
2023-03-07T18:42:54.260Z,5.57
2023-03-07T18:46:19.720Z,5.57
2023-03-07T18:49:44.953Z,5.58
2023-03-07T18:53:10.337Z,5.56
2023-03-07T18:56:35.668Z,5.58
2023-03-07T19:00:01.027Z,5.56
2023-03-07T19:03:26.389Z,5.54
2023-03-07T19:06:51.724Z,5.57
2023-03-07T19:10:17.068Z,5.54
2023-03-07T19:13:42.406Z,5.54
2023-03-07T19:17:07.760Z,5.56
2023-03-07T19:20:33.110Z,5.57
2023-03-07T19:23:58.540Z,5.54
2023-03-07T19:27:23.910Z,5.53
2023-03-07T19:30:49.424Z,5.49
2023-03-07T19:34:14.778Z,5.49
2023-03-07T19:37:40.070Z,5.46
2023-03-07T19:41:05.414Z,5.44
2023-03-07T19:44:30.818Z,5.49
2023-03-07T19:47:56.129Z,5.49
2023-03-07T19:51:21.476Z,5.53
2023-03-07T19:54:46.836Z,5.56
2023-03-07T19:58:12.177Z,5.54
2023-03-07T20:01:37.552Z,5.5
2023-03-07T20:05:02.856Z,5.49
2023-03-07T20:08:28.262Z,5.49
2023-03-07T20:11:53.647Z,5.47
2023-03-07T20:15:19.019Z,5.44
2023-03-07T20:18:44.292Z,5.42
2023-03-07T20:22:09.705Z,5.41
2023-03-07T20:25:35.002Z,5.38
2023-03-07T20:29:00.359Z,5.36
2023-03-07T20:32:25.675Z,5.36
2023-03-07T20:35:51.028Z,5.38
2023-03-07T20:39:16.334Z,5.37
2023-03-07T20:42:41.672Z,5.34
2023-03-07T20:46:07.136Z,5.34
2023-03-07T20:49:32.339Z,5.4
2023-03-07T20:52:57.645Z,5.46
2023-03-07T20:56:22.957Z,5.52
2023-03-07T20:59:48.249Z,5.55
2023-03-07T21:03:13.481Z,5.54
2023-03-07T21:06:38.628Z,5.47
2023-03-07T21:10:03.842Z,5.47
2023-03-07T21:13:29.036Z,5.4
2023-03-07T21:16:54.242Z,5.38
2023-03-07T21:20:19.468Z,5.36
2023-03-07T21:23:44.644Z,5.37
2023-03-07T21:27:09.853Z,5.41
2023-03-07T21:30:35.061Z,5.49
2023-03-07T21:34:00.281Z,5.5
2023-03-07T21:37:25.524Z,5.49
2023-03-07T21:40:50.705Z,5.52
2023-03-07T21:44:15.916Z,5.51
2023-03-07T21:47:41.119Z,5.45
2023-03-07T21:51:06.322Z,5.46
2023-03-07T21:54:31.570Z,5.47
2023-03-07T21:57:56.724Z,5.5
2023-03-07T22:01:22.024Z,5.47
2023-03-07T22:04:47.156Z,5.45
2023-03-07T22:08:12.347Z,5.43
2023-03-07T22:11:37.567Z,5.45
2023-03-07T22:15:02.760Z,5.5
2023-03-07T22:18:27.951Z,5.56
2023-03-07T22:21:53.146Z,5.63
2023-03-07T22:25:18.345Z,5.64
2023-03-07T22:28:43.537Z,5.52
2023-03-07T22:32:08.850Z,5.37
2023-03-07T22:35:33.956Z,5.29
2023-03-07T22:38:59.125Z,5.19
2023-03-07T22:42:24.365Z,5.19
2023-03-07T22:45:49.638Z,5.13
2023-03-07T22:49:14.728Z,4.98
2023-03-07T22:52:39.924Z,4.82
2023-03-07T22:56:05.132Z,4.75
2023-03-07T22:59:30.325Z,4.66
2023-03-07T23:02:55.631Z,4.6
2023-03-07T23:06:20.787Z,4.62
2023-03-07T23:09:45.950Z,4.66
2023-03-07T23:13:11.166Z,4.7
2023-03-07T23:16:36.386Z,4.74
2023-03-07T23:20:01.628Z,4.79
2023-03-07T23:23:26.791Z,4.82
2023-03-07T23:26:52.006Z,4.84
2023-03-07T23:30:17.191Z,4.86
2023-03-07T23:33:42.394Z,4.83
2023-03-07T23:37:07.631Z,4.85
2023-03-07T23:40:32.798Z,4.92
2023-03-07T23:43:57.991Z,5.02
2023-03-07T23:47:23.215Z,5.12
2023-03-07T23:50:48.399Z,5.22
2023-03-07T23:54:13.617Z,5.3
2023-03-07T23:57:38.774Z,5.34
